Santa Rita, Brazil
Current Conditions -  °F | °C
As of 9:00 AM on Friday 24 Oct 2014 (Local Time) from SBJP Reporting Station
Broken Clouds Broken Clouds  
Wind Chill: 82°   Ceiling: 3000
Heat Index: 85°   Visibility: 6mi
Dew Point: 66°   Wind: 12mph
Humidity: 58%   Direction: 110°ESE
Pressure: 29.97"   Gusts: NA
Location:  7.11°S, 34.98°W
Report Text: SBJP 241200Z 11010KT 080V150 9999 BKN030 28/19 Q1015
Loading
Personal Weather Stations






























Interactive Weather Map
Tropical Storm Tracking
New forecast layout! Learn more

10-Day Weather Forecast

Advertisements
Track Severe Weather on mobile